sensor_id;sensor_type;location;lat;lon;timestamp;temperature;humidity
9564;DHT22;4820;50.870;4.702;2023-04-25T00:01:05;9.80;99.90
9564;DHT22;4820;50.870;4.702;2023-04-25T00:03:31;9.80;99.90
9564;DHT22;4820;50.870;4.702;2023-04-25T00:05:58;9.80;99.90
9564;DHT22;4820;50.870;4.702;2023-04-25T00:08:29;9.70;99.90
9564;DHT22;4820;50.870;4.702;2023-04-25T00:10:56;9.80;99.90
9564;DHT22;4820;50.870;4.702;2023-04-25T00:13:22;9.80;99.90
9564;DHT22;4820;50.870;4.702;2023-04-25T00:15:48;9.80;99.90
9564;DHT22;4820;50.870;4.702;2023-04-25T00:18:14;9.90;99.90
9564;DHT22;4820;50.870;4.702;2023-04-25T00:20:40;9.90;99.90
9564;DHT22;4820;50.870;4.702;2023-04-25T00:23:16;9.90;99.90
9564;DHT22;4820;50.870;4.702;2023-04-25T00:25:50;9.80;99.90
9564;DHT22;4820;50.870;4.702;2023-04-25T00:28:16;9.80;99.90
9564;DHT22;4820;50.870;4.702;2023-04-25T00:30:43;9.70;99.90
9564;DHT22;4820;50.870;4.702;2023-04-25T00:33:09;9.70;99.90
9564;DHT22;4820;50.870;4.702;2023-04-25T00:35:35;9.70;99.90
9564;DHT22;4820;50.870;4.702;2023-04-25T00:38:01;9.80;99.90
9564;DHT22;4820;50.870;4.702;2023-04-25T00:40:27;9.80;99.90
9564;DHT22;4820;50.870;4.702;2023-04-25T00:42:53;9.80;99.90
9564;DHT22;4820;50.870;4.702;2023-04-25T00:45:20;9.90;99.90
9564;DHT22;4820;50.870;4.702;2023-04-25T00:47:46;9.90;99.90
9564;DHT22;4820;50.870;4.702;2023-04-25T00:50:13;9.90;99.90
9564;DHT22;4820;50.870;4.702;2023-04-25T00:52:44;9.90;99.90
9564;DHT22;4820;50.870;4.702;2023-04-25T00:55:11;9.90;99.90
9564;DHT22;4820;50.870;4.702;2023-04-25T00:57:38;9.90;99.90
9564;DHT22;4820;50.870;4.702;2023-04-25T01:00:05;9.90;99.90
9564;DHT22;4820;50.870;4.702;2023-04-25T01:02:33;9.90;99.90
9564;DHT22;4820;50.870;4.702;2023-04-25T01:05:01;9.90;99.90
9564;DHT22;4820;50.870;4.702;2023-04-25T01:07:27;9.90;99.90
9564;DHT22;4820;50.870;4.702;2023-04-25T01:09:53;9.80;99.90
9564;DHT22;4820;50.870;4.702;2023-04-25T01:12:18;9.80;99.90
9564;DHT22;4820;50.870;4.702;2023-04-25T01:14:44;9.80;99.90
9564;DHT22;4820;50.870;4.702;2023-04-25T01:17:11;9.80;99.90
9564;DHT22;4820;50.870;4.702;2023-04-25T01:19:37;9.80;99.90
9564;DHT22;4820;50.870;4.702;2023-04-25T01:22:03;9.80;99.90
9564;DHT22;4820;50.870;4.702;2023-04-25T01:24:32;9.80;99.90
9564;DHT22;4820;50.870;4.702;2023-04-25T01:27:00;9.80;99.90
9564;DHT22;4820;50.870;4.702;2023-04-25T01:29:28;9.80;99.90
9564;DHT22;4820;50.870;4.702;2023-04-25T01:31:54;9.70;99.90
9564;DHT22;4820;50.870;4.702;2023-04-25T01:34:20;9.70;99.90
9564;DHT22;4820;50.870;4.702;2023-04-25T01:36:49;9.70;99.90
9564;DHT22;4820;50.870;4.702;2023-04-25T01:39:17;9.70;99.90
9564;DHT22;4820;50.870;4.702;2023-04-25T01:41:43;9.70;99.90
9564;DHT22;4820;50.870;4.702;2023-04-25T01:44:09;9.70;99.90
9564;DHT22;4820;50.870;4.702;2023-04-25T01:46:35;9.70;99.90
9564;DHT22;4820;50.870;4.702;2023-04-25T01:49:01;9.60;99.90
9564;DHT22;4820;50.870;4.702;2023-04-25T01:51:27;9.60;99.90
9564;DHT22;4820;50.870;4.702;2023-04-25T01:53:52;9.60;99.90
9564;DHT22;4820;50.870;4.702;2023-04-25T01:56:19;9.60;99.90
9564;DHT22;4820;50.870;4.702;2023-04-25T01:58:45;9.50;99.90
9564;DHT22;4820;50.870;4.702;2023-04-25T02:01:11;9.50;99.90
9564;DHT22;4820;50.870;4.702;2023-04-25T02:03:37;9.50;99.90
9564;DHT22;4820;50.870;4.702;2023-04-25T02:06:03;9.50;99.90
9564;DHT22;4820;50.870;4.702;2023-04-25T02:08:28;9.50;99.90
9564;DHT22;4820;50.870;4.702;2023-04-25T02:10:55;9.40;99.90
9564;DHT22;4820;50.870;4.702;2023-04-25T02:13:21;9.40;99.90
9564;DHT22;4820;50.870;4.702;2023-04-25T02:15:47;9.30;99.90
9564;DHT22;4820;50.870;4.702;2023-04-25T02:18:12;9.20;99.90
9564;DHT22;4820;50.870;4.702;2023-04-25T02:20:41;9.20;99.90
9564;DHT22;4820;50.870;4.702;2023-04-25T02:23:07;9.20;99.90
9564;DHT22;4820;50.870;4.702;2023-04-25T02:25:33;9.10;99.90
9564;DHT22;4820;50.870;4.702;2023-04-25T02:27:58;9.10;99.90
9564;DHT22;4820;50.870;4.702;2023-04-25T02:30:24;9.20;99.90
9564;DHT22;4820;50.870;4.702;2023-04-25T02:32:50;9.20;99.90
9564;DHT22;4820;50.870;4.702;2023-04-25T02:35:16;9.20;99.90
9564;DHT22;4820;50.870;4.702;2023-04-25T02:37:42;9.20;99.90
9564;DHT22;4820;50.870;4.702;2023-04-25T02:40:08;9.20;99.90
9564;DHT22;4820;50.870;4.702;2023-04-25T02:42:34;9.20;99.90
9564;DHT22;4820;50.870;4.702;2023-04-25T02:45:00;9.20;99.90
9564;DHT22;4820;50.870;4.702;2023-04-25T02:47:25;9.10;99.90
9564;DHT22;4820;50.870;4.702;2023-04-25T02:49:51;9.10;99.90
9564;DHT22;4820;50.870;4.702;2023-04-25T02:52:17;9.10;99.90
9564;DHT22;4820;50.870;4.702;2023-04-25T02:54:43;9.10;99.90
9564;DHT22;4820;50.870;4.702;2023-04-25T02:57:08;9.20;99.90
9564;DHT22;4820;50.870;4.702;2023-04-25T02:59:34;9.10;99.90
9564;DHT22;4820;50.870;4.702;2023-04-25T03:02:00;9.10;99.90
9564;DHT22;4820;50.870;4.702;2023-04-25T03:04:26;9.00;99.90
9564;DHT22;4820;50.870;4.702;2023-04-25T03:06:52;9.10;99.90
9564;DHT22;4820;50.870;4.702;2023-04-25T03:09:19;9.10;99.90
9564;DHT22;4820;50.870;4.702;2023-04-25T03:11:45;9.10;99.90
9564;DHT22;4820;50.870;4.702;2023-04-25T03:14:11;9.00;99.90
9564;DHT22;4820;50.870;4.702;2023-04-25T03:16:37;9.10;99.90
9564;DHT22;4820;50.870;4.702;2023-04-25T03:19:03;9.10;99.90
9564;DHT22;4820;50.870;4.702;2023-04-25T03:21:31;9.00;99.90
9564;DHT22;4820;50.870;4.702;2023-04-25T03:23:58;9.10;99.90
9564;DHT22;4820;50.870;4.702;2023-04-25T03:26:23;9.10;99.90
9564;DHT22;4820;50.870;4.702;2023-04-25T03:28:50;9.10;99.90
9564;DHT22;4820;50.870;4.702;2023-04-25T03:31:15;9.10;99.90
9564;DHT22;4820;50.870;4.702;2023-04-25T03:33:41;9.10;99.90
9564;DHT22;4820;50.870;4.702;2023-04-25T03:36:07;9.00;99.90
9564;DHT22;4820;50.870;4.702;2023-04-25T03:38:33;9.10;99.90
9564;DHT22;4820;50.870;4.702;2023-04-25T03:40:59;9.10;99.90
9564;DHT22;4820;50.870;4.702;2023-04-25T03:43:25;9.00;99.90
9564;DHT22;4820;50.870;4.702;2023-04-25T03:45:50;9.10;99.90
9564;DHT22;4820;50.870;4.702;2023-04-25T03:48:16;9.00;99.90
9564;DHT22;4820;50.870;4.702;2023-04-25T03:50:42;9.00;99.90
9564;DHT22;4820;50.870;4.702;2023-04-25T03:53:08;8.90;99.90
9564;DHT22;4820;50.870;4.702;2023-04-25T03:55:33;8.90;99.90
9564;DHT22;4820;50.870;4.702;2023-04-25T03:57:59;8.90;99.90
9564;DHT22;4820;50.870;4.702;2023-04-25T04:00:25;8.80;99.90
9564;DHT22;4820;50.870;4.702;2023-04-25T04:02:51;8.70;99.90
9564;DHT22;4820;50.870;4.702;2023-04-25T04:05:16;8.70;99.90
9564;DHT22;4820;50.870;4.702;2023-04-25T04:07:42;8.70;99.90
9564;DHT22;4820;50.870;4.702;2023-04-25T04:10:11;8.70;99.90
9564;DHT22;4820;50.870;4.702;2023-04-25T04:12:38;8.70;99.90
9564;DHT22;4820;50.870;4.702;2023-04-25T04:15:07;8.70;99.90
9564;DHT22;4820;50.870;4.702;2023-04-25T04:17:33;8.70;99.90
9564;DHT22;4820;50.870;4.702;2023-04-25T04:19:59;8.60;99.90
9564;DHT22;4820;50.870;4.702;2023-04-25T04:22:25;8.70;99.90
9564;DHT22;4820;50.870;4.702;2023-04-25T04:24:51;8.70;99.90
9564;DHT22;4820;50.870;4.702;2023-04-25T04:27:18;8.70;99.90
9564;DHT22;4820;50.870;4.702;2023-04-25T04:29:45;8.70;99.90
9564;DHT22;4820;50.870;4.702;2023-04-25T04:32:12;8.70;99.90
9564;DHT22;4820;50.870;4.702;2023-04-25T04:34:37;8.80;99.90
9564;DHT22;4820;50.870;4.702;2023-04-25T04:37:05;8.80;99.90
9564;DHT22;4820;50.870;4.702;2023-04-25T04:39:31;8.80;99.90
9564;DHT22;4820;50.870;4.702;2023-04-25T04:41:56;8.80;99.90
9564;DHT22;4820;50.870;4.702;2023-04-25T04:44:22;8.80;99.90
9564;DHT22;4820;50.870;4.702;2023-04-25T04:46:51;8.80;99.90
9564;DHT22;4820;50.870;4.702;2023-04-25T04:49:17;8.80;99.90
9564;DHT22;4820;50.870;4.702;2023-04-25T04:51:43;8.80;99.90
9564;DHT22;4820;50.870;4.702;2023-04-25T04:54:11;8.80;99.90
9564;DHT22;4820;50.870;4.702;2023-04-25T04:56:37;8.80;99.90
9564;DHT22;4820;50.870;4.702;2023-04-25T04:59:02;8.80;99.90
9564;DHT22;4820;50.870;4.702;2023-04-25T05:01:28;8.80;99.90
9564;DHT22;4820;50.870;4.702;2023-04-25T05:03:56;8.80;99.90
9564;DHT22;4820;50.870;4.702;2023-04-25T05:06:26;8.80;99.90
9564;DHT22;4820;50.870;4.702;2023-04-25T05:08:52;8.80;99.90
9564;DHT22;4820;50.870;4.702;2023-04-25T05:11:19;8.90;99.90
9564;DHT22;4820;50.870;4.702;2023-04-25T05:13:44;8.90;99.90
9564;DHT22;4820;50.870;4.702;2023-04-25T05:16:11;8.80;99.90
9564;DHT22;4820;50.870;4.702;2023-04-25T05:18:38;8.80;99.90
9564;DHT22;4820;50.870;4.702;2023-04-25T05:21:04;8.80;99.90
9564;DHT22;4820;50.870;4.702;2023-04-25T05:23:31;8.80;99.90
9564;DHT22;4820;50.870;4.702;2023-04-25T05:25:57;8.80;99.90
9564;DHT22;4820;50.870;4.702;2023-04-25T05:28:23;8.80;99.90
9564;DHT22;4820;50.870;4.702;2023-04-25T05:30:49;8.80;99.90
9564;DHT22;4820;50.870;4.702;2023-04-25T05:33:14;8.80;99.90
9564;DHT22;4820;50.870;4.702;2023-04-25T05:35:41;8.80;99.90
9564;DHT22;4820;50.870;4.702;2023-04-25T05:38:06;8.70;99.90
9564;DHT22;4820;50.870;4.702;2023-04-25T05:40:32;8.70;99.90
9564;DHT22;4820;50.870;4.702;2023-04-25T05:42:58;8.70;99.90
9564;DHT22;4820;50.870;4.702;2023-04-25T05:45:24;8.80;99.90
9564;DHT22;4820;50.870;4.702;2023-04-25T05:47:49;8.80;99.90
9564;DHT22;4820;50.870;4.702;2023-04-25T05:50:15;8.80;99.90
9564;DHT22;4820;50.870;4.702;2023-04-25T05:52:41;8.80;99.90
9564;DHT22;4820;50.870;4.702;2023-04-25T05:55:07;8.80;99.90
9564;DHT22;4820;50.870;4.702;2023-04-25T05:57:33;8.90;99.90
9564;DHT22;4820;50.870;4.702;2023-04-25T05:59:59;8.90;99.90
9564;DHT22;4820;50.870;4.702;2023-04-25T06:02:25;8.90;99.90
9564;DHT22;4820;50.870;4.702;2023-04-25T06:04:51;8.90;99.90
9564;DHT22;4820;50.870;4.702;2023-04-25T06:07:18;8.90;99.90
9564;DHT22;4820;50.870;4.702;2023-04-25T06:09:44;8.90;99.90
9564;DHT22;4820;50.870;4.702;2023-04-25T06:12:10;8.90;99.90
9564;DHT22;4820;50.870;4.702;2023-04-25T06:14:35;8.90;99.90
9564;DHT22;4820;50.870;4.702;2023-04-25T06:17:02;8.90;99.90
9564;DHT22;4820;50.870;4.702;2023-04-25T06:19:35;8.90;99.90
9564;DHT22;4820;50.870;4.702;2023-04-25T06:22:01;8.90;99.90
9564;DHT22;4820;50.870;4.702;2023-04-25T06:24:27;8.90;99.90
9564;DHT22;4820;50.870;4.702;2023-04-25T06:26:53;8.90;99.90
9564;DHT22;4820;50.870;4.702;2023-04-25T06:29:19;9.00;99.90
9564;DHT22;4820;50.870;4.702;2023-04-25T06:31:45;9.00;99.90
9564;DHT22;4820;50.870;4.702;2023-04-25T06:34:11;9.10;99.90
9564;DHT22;4820;50.870;4.702;2023-04-25T06:36:37;9.20;99.90
9564;DHT22;4820;50.870;4.702;2023-04-25T06:39:02;9.20;99.90
9564;DHT22;4820;50.870;4.702;2023-04-25T06:41:28;9.30;99.90
9564;DHT22;4820;50.870;4.702;2023-04-25T06:43:54;9.40;99.90
9564;DHT22;4820;50.870;4.702;2023-04-25T06:46:20;9.50;99.90
9564;DHT22;4820;50.870;4.702;2023-04-25T06:48:45;9.60;99.90
9564;DHT22;4820;50.870;4.702;2023-04-25T06:51:11;9.60;99.90
9564;DHT22;4820;50.870;4.702;2023-04-25T06:53:39;9.70;99.90
9564;DHT22;4820;50.870;4.702;2023-04-25T06:56:05;9.70;99.90
9564;DHT22;4820;50.870;4.702;2023-04-25T06:58:31;9.80;99.90
9564;DHT22;4820;50.870;4.702;2023-04-25T07:00:57;9.90;99.90
9564;DHT22;4820;50.870;4.702;2023-04-25T07:03:22;9.90;99.90
9564;DHT22;4820;50.870;4.702;2023-04-25T07:05:49;9.90;99.90
9564;DHT22;4820;50.870;4.702;2023-04-25T07:08:15;9.90;99.90
9564;DHT22;4820;50.870;4.702;2023-04-25T07:10:41;9.80;99.90
9564;DHT22;4820;50.870;4.702;2023-04-25T07:13:07;9.80;99.90
9564;DHT22;4820;50.870;4.702;2023-04-25T07:15:33;9.80;99.90
9564;DHT22;4820;50.870;4.702;2023-04-25T07:17:59;9.80;99.90
9564;DHT22;4820;50.870;4.702;2023-04-25T07:20:24;9.90;99.90
9564;DHT22;4820;50.870;4.702;2023-04-25T07:22:50;9.90;99.90
9564;DHT22;4820;50.870;4.702;2023-04-25T07:25:17;10.00;99.90
9564;DHT22;4820;50.870;4.702;2023-04-25T07:27:42;10.00;99.90
9564;DHT22;4820;50.870;4.702;2023-04-25T07:30:08;10.00;99.90
9564;DHT22;4820;50.870;4.702;2023-04-25T07:32:34;10.10;99.90
9564;DHT22;4820;50.870;4.702;2023-04-25T07:35:00;10.00;99.90
9564;DHT22;4820;50.870;4.702;2023-04-25T07:37:27;10.00;99.90
9564;DHT22;4820;50.870;4.702;2023-04-25T07:39:52;10.00;99.90
9564;DHT22;4820;50.870;4.702;2023-04-25T07:42:18;10.00;99.90
9564;DHT22;4820;50.870;4.702;2023-04-25T07:44:44;10.00;99.90
9564;DHT22;4820;50.870;4.702;2023-04-25T07:47:10;10.10;99.90
9564;DHT22;4820;50.870;4.702;2023-04-25T07:49:38;10.20;99.90
9564;DHT22;4820;50.870;4.702;2023-04-25T07:52:05;10.30;99.90
9564;DHT22;4820;50.870;4.702;2023-04-25T07:54:34;10.30;99.90
9564;DHT22;4820;50.870;4.702;2023-04-25T07:57:00;10.40;99.90
9564;DHT22;4820;50.870;4.702;2023-04-25T07:59:26;10.50;99.90
9564;DHT22;4820;50.870;4.702;2023-04-25T08:01:51;10.70;99.90
9564;DHT22;4820;50.870;4.702;2023-04-25T08:04:17;10.90;99.90
9564;DHT22;4820;50.870;4.702;2023-04-25T08:06:43;11.00;99.90
9564;DHT22;4820;50.870;4.702;2023-04-25T08:09:08;11.20;99.90
9564;DHT22;4820;50.870;4.702;2023-04-25T08:11:36;11.20;99.90
9564;DHT22;4820;50.870;4.702;2023-04-25T08:14:02;11.20;99.90
9564;DHT22;4820;50.870;4.702;2023-04-25T08:16:28;11.10;99.90
9564;DHT22;4820;50.870;4.702;2023-04-25T08:18:54;10.90;99.90
9564;DHT22;4820;50.870;4.702;2023-04-25T08:21:19;10.70;99.90
9564;DHT22;4820;50.870;4.702;2023-04-25T08:23:45;10.40;99.90
9564;DHT22;4820;50.870;4.702;2023-04-25T08:26:11;10.30;99.90
9564;DHT22;4820;50.870;4.702;2023-04-25T08:28:37;10.20;99.90
9564;DHT22;4820;50.870;4.702;2023-04-25T08:31:03;10.00;99.90
9564;DHT22;4820;50.870;4.702;2023-04-25T08:33:29;9.80;99.90
9564;DHT22;4820;50.870;4.702;2023-04-25T08:35:55;9.70;99.90
9564;DHT22;4820;50.870;4.702;2023-04-25T08:38:21;9.60;99.90
9564;DHT22;4820;50.870;4.702;2023-04-25T08:40:49;9.60;99.90
9564;DHT22;4820;50.870;4.702;2023-04-25T08:43:19;9.60;99.90
9564;DHT22;4820;50.870;4.702;2023-04-25T08:45:46;9.60;99.90
9564;DHT22;4820;50.870;4.702;2023-04-25T08:48:13;9.60;99.90
9564;DHT22;4820;50.870;4.702;2023-04-25T08:50:59;9.60;99.90
9564;DHT22;4820;50.870;4.702;2023-04-25T08:53:28;9.60;99.90
9564;DHT22;4820;50.870;4.702;2023-04-25T08:55:55;9.70;99.90
9564;DHT22;4820;50.870;4.702;2023-04-25T08:58:21;9.90;99.90
9564;DHT22;4820;50.870;4.702;2023-04-25T09:00:49;10.10;99.90
9564;DHT22;4820;50.870;4.702;2023-04-25T09:03:18;10.30;99.90
9564;DHT22;4820;50.870;4.702;2023-04-25T09:05:44;10.40;99.90
9564;DHT22;4820;50.870;4.702;2023-04-25T09:08:10;10.50;99.90
9564;DHT22;4820;50.870;4.702;2023-04-25T09:10:36;10.50;99.90
9564;DHT22;4820;50.870;4.702;2023-04-25T09:15:29;10.20;99.90
9564;DHT22;4820;50.870;4.702;2023-04-25T09:17:59;10.20;99.90
9564;DHT22;4820;50.870;4.702;2023-04-25T09:20:25;10.30;99.90
9564;DHT22;4820;50.870;4.702;2023-04-25T09:23:04;10.60;99.90
9564;DHT22;4820;50.870;4.702;2023-04-25T09:25:34;11.20;99.90
9564;DHT22;4820;50.870;4.702;2023-04-25T09:28:04;11.60;99.90
9564;DHT22;4820;50.870;4.702;2023-04-25T09:30:31;11.80;99.90
9564;DHT22;4820;50.870;4.702;2023-04-25T09:33:04;11.70;99.90
9564;DHT22;4820;50.870;4.702;2023-04-25T09:35:42;11.40;99.90
9564;DHT22;4820;50.870;4.702;2023-04-25T09:38:13;11.20;99.90
9564;DHT22;4820;50.870;4.702;2023-04-25T09:40:45;11.00;99.90
9564;DHT22;4820;50.870;4.702;2023-04-25T09:43:25;10.80;99.90
9564;DHT22;4820;50.870;4.702;2023-04-25T09:45:53;10.70;99.90
9564;DHT22;4820;50.870;4.702;2023-04-25T09:48:22;10.70;99.90
9564;DHT22;4820;50.870;4.702;2023-04-25T09:51:12;10.60;99.90
9564;DHT22;4820;50.870;4.702;2023-04-25T09:53:48;10.60;99.90
9564;DHT22;4820;50.870;4.702;2023-04-25T09:56:16;10.70;99.90
9564;DHT22;4820;50.870;4.702;2023-04-25T09:58:42;10.80;99.90
9564;DHT22;4820;50.870;4.702;2023-04-25T10:01:09;11.00;99.90
9564;DHT22;4820;50.870;4.702;2023-04-25T10:03:38;11.10;99.90
9564;DHT22;4820;50.870;4.702;2023-04-25T10:06:12;11.20;99.90
9564;DHT22;4820;50.870;4.702;2023-04-25T10:08:38;11.10;99.90
9564;DHT22;4820;50.870;4.702;2023-04-25T10:11:05;11.00;99.90
9564;DHT22;4820;50.870;4.702;2023-04-25T10:13:33;10.90;99.90
9564;DHT22;4820;50.870;4.702;2023-04-25T10:15:59;10.80;99.90
9564;DHT22;4820;50.870;4.702;2023-04-25T10:18:30;10.90;99.90
9564;DHT22;4820;50.870;4.702;2023-04-25T10:20:58;11.10;99.90
9564;DHT22;4820;50.870;4.702;2023-04-25T10:23:25;11.60;99.90
9564;DHT22;4820;50.870;4.702;2023-04-25T10:25:52;11.90;99.90
9564;DHT22;4820;50.870;4.702;2023-04-25T10:28:19;12.40;99.90
9564;DHT22;4820;50.870;4.702;2023-04-25T10:31:07;12.90;99.90
9564;DHT22;4820;50.870;4.702;2023-04-25T10:33:38;13.00;99.90
9564;DHT22;4820;50.870;4.702;2023-04-25T10:36:33;12.90;99.90
9564;DHT22;4820;50.870;4.702;2023-04-25T10:39:04;13.00;99.60
9564;DHT22;4820;50.870;4.702;2023-04-25T10:41:51;13.00;97.90
9564;DHT22;4820;50.870;4.702;2023-04-25T10:44:17;12.70;97.90
9564;DHT22;4820;50.870;4.702;2023-04-25T10:46:44;12.60;98.00
9564;DHT22;4820;50.870;4.702;2023-04-25T10:49:10;12.40;97.70
9564;DHT22;4820;50.870;4.702;2023-04-25T10:51:36;12.20;98.20
9564;DHT22;4820;50.870;4.702;2023-04-25T10:54:04;12.00;99.00
9564;DHT22;4820;50.870;4.702;2023-04-25T10:56:37;11.90;99.50
9564;DHT22;4820;50.870;4.702;2023-04-25T10:59:15;12.20;98.80
9564;DHT22;4820;50.870;4.702;2023-04-25T11:01:45;12.60;97.20
9564;DHT22;4820;50.870;4.702;2023-04-25T11:04:31;12.90;97.50
9564;DHT22;4820;50.870;4.702;2023-04-25T11:07:13;13.30;96.60
9564;DHT22;4820;50.870;4.702;2023-04-25T11:09:42;13.30;96.40
9564;DHT22;4820;50.870;4.702;2023-04-25T11:12:10;13.20;96.20
9564;DHT22;4820;50.870;4.702;2023-04-25T11:14:39;13.00;96.70
9564;DHT22;4820;50.870;4.702;2023-04-25T11:17:05;12.90;97.60
9564;DHT22;4820;50.870;4.702;2023-04-25T11:19:31;12.80;98.10
9564;DHT22;4820;50.870;4.702;2023-04-25T11:22:01;12.70;99.20
9564;DHT22;4820;50.870;4.702;2023-04-25T11:24:28;12.50;99.90
9564;DHT22;4820;50.870;4.702;2023-04-25T11:26:54;12.40;99.90
9564;DHT22;4820;50.870;4.702;2023-04-25T11:29:26;12.30;99.90
9564;DHT22;4820;50.870;4.702;2023-04-25T11:31:52;12.20;99.90
9564;DHT22;4820;50.870;4.702;2023-04-25T11:34:18;12.20;99.90
9564;DHT22;4820;50.870;4.702;2023-04-25T11:36:45;12.20;99.90
9564;DHT22;4820;50.870;4.702;2023-04-25T11:39:11;12.20;99.90
9564;DHT22;4820;50.870;4.702;2023-04-25T11:41:38;12.30;99.90
9564;DHT22;4820;50.870;4.702;2023-04-25T11:44:04;12.40;99.90
9564;DHT22;4820;50.870;4.702;2023-04-25T11:46:30;12.40;99.90
9564;DHT22;4820;50.870;4.702;2023-04-25T11:48:56;12.50;99.90
9564;DHT22;4820;50.870;4.702;2023-04-25T11:51:22;12.60;99.90
9564;DHT22;4820;50.870;4.702;2023-04-25T11:53:48;12.60;99.90
9564;DHT22;4820;50.870;4.702;2023-04-25T11:56:14;12.50;99.90
9564;DHT22;4820;50.870;4.702;2023-04-25T12:01:38;12.40;99.90
9564;DHT22;4820;50.870;4.702;2023-04-25T12:04:12;12.40;99.90
9564;DHT22;4820;50.870;4.702;2023-04-25T12:06:39;12.40;99.90
9564;DHT22;4820;50.870;4.702;2023-04-25T12:09:08;12.40;99.90
9564;DHT22;4820;50.870;4.702;2023-04-25T12:11:58;12.40;99.90
9564;DHT22;4820;50.870;4.702;2023-04-25T12:14:26;12.40;99.90
9564;DHT22;4820;50.870;4.702;2023-04-25T12:16:54;12.40;99.90
9564;DHT22;4820;50.870;4.702;2023-04-25T12:19:21;12.40;99.90
9564;DHT22;4820;50.870;4.702;2023-04-25T12:21:47;12.50;99.90
9564;DHT22;4820;50.870;4.702;2023-04-25T12:24:23;12.80;99.80
9564;DHT22;4820;50.870;4.702;2023-04-25T12:26:59;13.10;98.60
9564;DHT22;4820;50.870;4.702;2023-04-25T12:29:28;13.20;98.40
9564;DHT22;4820;50.870;4.702;2023-04-25T12:31:56;13.20;97.50
9564;DHT22;4820;50.870;4.702;2023-04-25T12:34:22;13.30;97.10
9564;DHT22;4820;50.870;4.702;2023-04-25T12:36:50;13.30;96.50
9564;DHT22;4820;50.870;4.702;2023-04-25T12:39:17;13.40;96.10
9564;DHT22;4820;50.870;4.702;2023-04-25T12:41:45;13.50;95.80
9564;DHT22;4820;50.870;4.702;2023-04-25T12:44:11;13.50;95.90
9564;DHT22;4820;50.870;4.702;2023-04-25T12:46:37;13.50;94.90
9564;DHT22;4820;50.870;4.702;2023-04-25T12:49:04;13.30;94.30
9564;DHT22;4820;50.870;4.702;2023-04-25T12:51:30;13.10;94.60
9564;DHT22;4820;50.870;4.702;2023-04-25T12:53:58;13.10;94.80
9564;DHT22;4820;50.870;4.702;2023-04-25T12:56:24;13.10;94.70
9564;DHT22;4820;50.870;4.702;2023-04-25T12:58:51;13.00;94.60
9564;DHT22;4820;50.870;4.702;2023-04-25T13:01:17;12.80;94.00
9564;DHT22;4820;50.870;4.702;2023-04-25T13:03:43;12.70;94.30
9564;DHT22;4820;50.870;4.702;2023-04-25T13:06:09;12.90;94.10
9564;DHT22;4820;50.870;4.702;2023-04-25T13:08:34;13.10;93.50
9564;DHT22;4820;50.870;4.702;2023-04-25T13:11:02;13.30;92.50
9564;DHT22;4820;50.870;4.702;2023-04-25T13:13:29;13.60;92.80
9564;DHT22;4820;50.870;4.702;2023-04-25T13:15:55;13.80;92.70
9564;DHT22;4820;50.870;4.702;2023-04-25T13:18:21;14.10;92.60
9564;DHT22;4820;50.870;4.702;2023-04-25T13:20:46;14.40;93.80
9564;DHT22;4820;50.870;4.702;2023-04-25T13:23:12;14.50;94.90
9564;DHT22;4820;50.870;4.702;2023-04-25T13:25:38;14.50;95.10
9564;DHT22;4820;50.870;4.702;2023-04-25T13:28:03;14.30;95.30
9564;DHT22;4820;50.870;4.702;2023-04-25T13:30:30;14.20;95.00
9564;DHT22;4820;50.870;4.702;2023-04-25T13:32:55;14.00;94.90
9564;DHT22;4820;50.870;4.702;2023-04-25T13:35:22;13.90;94.80
9564;DHT22;4820;50.870;4.702;2023-04-25T13:37:48;13.80;94.30
9564;DHT22;4820;50.870;4.702;2023-04-25T13:40:13;13.70;94.00
9564;DHT22;4820;50.870;4.702;2023-04-25T13:42:39;13.60;93.80
9564;DHT22;4820;50.870;4.702;2023-04-25T13:45:07;13.50;94.40
9564;DHT22;4820;50.870;4.702;2023-04-25T13:47:33;13.60;94.70
9564;DHT22;4820;50.870;4.702;2023-04-25T13:49:58;13.60;94.70
9564;DHT22;4820;50.870;4.702;2023-04-25T13:52:25;13.50;94.40
9564;DHT22;4820;50.870;4.702;2023-04-25T13:54:51;13.30;94.30
9564;DHT22;4820;50.870;4.702;2023-04-25T13:57:17;13.00;93.60
9564;DHT22;4820;50.870;4.702;2023-04-25T13:59:43;12.70;94.00
9564;DHT22;4820;50.870;4.702;2023-04-25T14:02:09;12.60;94.00
9564;DHT22;4820;50.870;4.702;2023-04-25T14:04:35;12.60;94.70
9564;DHT22;4820;50.870;4.702;2023-04-25T14:07:01;12.70;94.10
9564;DHT22;4820;50.870;4.702;2023-04-25T14:09:27;12.90;92.80
9564;DHT22;4820;50.870;4.702;2023-04-25T14:11:53;13.20;92.50
9564;DHT22;4820;50.870;4.702;2023-04-25T14:14:19;13.50;92.30
9564;DHT22;4820;50.870;4.702;2023-04-25T14:16:46;13.70;92.80
9564;DHT22;4820;50.870;4.702;2023-04-25T14:19:17;13.80;93.20
9564;DHT22;4820;50.870;4.702;2023-04-25T14:21:43;13.70;93.60
9564;DHT22;4820;50.870;4.702;2023-04-25T14:24:09;13.60;93.80
9564;DHT22;4820;50.870;4.702;2023-04-25T14:26:36;13.40;94.00
9564;DHT22;4820;50.870;4.702;2023-04-25T14:29:05;13.10;94.70
9564;DHT22;4820;50.870;4.702;2023-04-25T14:31:33;13.00;95.30
9564;DHT22;4820;50.870;4.702;2023-04-25T14:33:58;12.90;95.20
9564;DHT22;4820;50.870;4.702;2023-04-25T14:36:24;12.70;94.00
9564;DHT22;4820;50.870;4.702;2023-04-25T14:38:52;12.70;94.10
9564;DHT22;4820;50.870;4.702;2023-04-25T14:41:18;12.80;94.40
9564;DHT22;4820;50.870;4.702;2023-04-25T14:43:43;12.90;92.60
9564;DHT22;4820;50.870;4.702;2023-04-25T14:46:10;12.90;92.90
9564;DHT22;4820;50.870;4.702;2023-04-25T14:48:36;13.00;93.40
9564;DHT22;4820;50.870;4.702;2023-04-25T14:51:02;13.20;94.20
9564;DHT22;4820;50.870;4.702;2023-04-25T14:53:28;13.40;92.60
9564;DHT22;4820;50.870;4.702;2023-04-25T14:55:53;13.50;91.60
9564;DHT22;4820;50.870;4.702;2023-04-25T14:58:19;13.50;91.20
9564;DHT22;4820;50.870;4.702;2023-04-25T15:00:45;13.60;91.80
9564;DHT22;4820;50.870;4.702;2023-04-25T15:03:12;13.60;92.50
9564;DHT22;4820;50.870;4.702;2023-04-25T15:05:39;13.70;92.30
9564;DHT22;4820;50.870;4.702;2023-04-25T15:08:05;13.70;92.40
9564;DHT22;4820;50.870;4.702;2023-04-25T15:10:31;13.70;93.00
9564;DHT22;4820;50.870;4.702;2023-04-25T15:12:57;13.70;92.80
9564;DHT22;4820;50.870;4.702;2023-04-25T15:15:22;13.80;93.30
9564;DHT22;4820;50.870;4.702;2023-04-25T15:17:49;13.70;93.60
9564;DHT22;4820;50.870;4.702;2023-04-25T15:20:16;13.70;93.70
9564;DHT22;4820;50.870;4.702;2023-04-25T15:22:43;13.70;94.10
9564;DHT22;4820;50.870;4.702;2023-04-25T15:25:10;13.50;94.00
9564;DHT22;4820;50.870;4.702;2023-04-25T15:27:39;13.40;93.90
9564;DHT22;4820;50.870;4.702;2023-04-25T15:30:11;13.30;94.00
9564;DHT22;4820;50.870;4.702;2023-04-25T15:32:37;13.30;94.00
9564;DHT22;4820;50.870;4.702;2023-04-25T15:35:04;13.50;93.70
9564;DHT22;4820;50.870;4.702;2023-04-25T15:37:31;13.60;92.80
9564;DHT22;4820;50.870;4.702;2023-04-25T15:40:09;13.60;92.80
9564;DHT22;4820;50.870;4.702;2023-04-25T15:42:40;13.50;92.70
9564;DHT22;4820;50.870;4.702;2023-04-25T15:45:08;13.50;92.70
9564;DHT22;4820;50.870;4.702;2023-04-25T15:47:35;13.40;92.70
9564;DHT22;4820;50.870;4.702;2023-04-25T15:50:01;13.30;93.20
9564;DHT22;4820;50.870;4.702;2023-04-25T15:52:27;13.20;93.30
9564;DHT22;4820;50.870;4.702;2023-04-25T15:54:53;13.10;93.50
9564;DHT22;4820;50.870;4.702;2023-04-25T15:57:19;13.20;93.70
9564;DHT22;4820;50.870;4.702;2023-04-25T15:59:46;13.30;93.50
9564;DHT22;4820;50.870;4.702;2023-04-25T16:02:12;13.40;93.60
9564;DHT22;4820;50.870;4.702;2023-04-25T16:04:38;13.50;93.60
9564;DHT22;4820;50.870;4.702;2023-04-25T16:07:04;13.60;93.30
9564;DHT22;4820;50.870;4.702;2023-04-25T16:09:31;13.50;92.80
9564;DHT22;4820;50.870;4.702;2023-04-25T16:11:58;13.40;93.10
9564;DHT22;4820;50.870;4.702;2023-04-25T16:14:23;13.40;92.60